sensor_id;sensor_type;location;lat;lon;timestamp;pressure;altitude;pressure_sealevel;temperature;humidity
69667;BME280;66534;52.370;4.832;2023-01-25T00:00:11;103852.56;;;1.81;100.00
69667;BME280;66534;52.370;4.832;2023-01-25T00:00:42;103847.44;;;1.82;100.00
69667;BME280;66534;52.370;4.832;2023-01-25T00:01:12;103847.91;;;1.72;100.00
69667;BME280;66534;52.370;4.832;2023-01-25T00:01:43;103845.03;;;1.66;100.00
69667;BME280;66534;52.370;4.832;2023-01-25T00:02:13;103852.22;;;1.51;100.00
69667;BME280;66534;52.370;4.832;2023-01-25T00:02:43;103849.88;;;1.79;100.00
69667;BME280;66534;52.370;4.832;2023-01-25T00:03:14;103845.38;;;1.96;100.00
69667;BME280;66534;52.370;4.832;2023-01-25T00:03:44;103838.63;;;1.99;100.00
69667;BME280;66534;52.370;4.832;2023-01-25T00:04:14;103844.97;;;1.85;100.00
69667;BME280;66534;52.370;4.832;2023-01-25T00:04:45;103846.50;;;1.80;100.00
69667;BME280;66534;52.370;4.832;2023-01-25T00:05:15;103844.09;;;1.85;100.00
69667;BME280;66534;52.370;4.832;2023-01-25T00:05:46;103834.69;;;2.09;100.00
69667;BME280;66534;52.370;4.832;2023-01-25T00:06:16;103837.84;;;2.24;100.00
69667;BME280;66534;52.370;4.832;2023-01-25T00:06:47;103837.81;;;2.23;100.00
69667;BME280;66534;52.370;4.832;2023-01-25T00:07:17;103836.16;;;2.25;100.00
69667;BME280;66534;52.370;4.832;2023-01-25T00:07:48;103832.59;;;2.00;100.00
69667;BME280;66534;52.370;4.832;2023-01-25T00:08:18;103844.16;;;2.09;100.00
69667;BME280;66534;52.370;4.832;2023-01-25T00:08:50;103831.91;;;2.05;100.00
69667;BME280;66534;52.370;4.832;2023-01-25T00:09:21;103837.38;;;2.12;100.00
69667;BME280;66534;52.370;4.832;2023-01-25T00:09:52;103829.53;;;2.33;100.00
69667;BME280;66534;52.370;4.832;2023-01-25T00:10:23;103831.69;;;2.21;100.00
69667;BME280;66534;52.370;4.832;2023-01-25T00:10:53;103833.34;;;1.75;100.00
69667;BME280;66534;52.370;4.832;2023-01-25T00:11:24;103833.63;;;1.82;100.00
69667;BME280;66534;52.370;4.832;2023-01-25T00:11:54;103829.22;;;2.02;100.00
69667;BME280;66534;52.370;4.832;2023-01-25T00:12:27;103828.81;;;2.13;100.00
69667;BME280;66534;52.370;4.832;2023-01-25T00:12:57;103822.31;;;2.24;100.00
69667;BME280;66534;52.370;4.832;2023-01-25T00:13:27;103829.38;;;2.29;100.00
69667;BME280;66534;52.370;4.832;2023-01-25T00:13:58;103821.19;;;2.40;100.00
69667;BME280;66534;52.370;4.832;2023-01-25T00:14:28;103818.00;;;2.25;100.00
69667;BME280;66534;52.370;4.832;2023-01-25T00:14:59;103829.66;;;2.36;100.00
69667;BME280;66534;52.370;4.832;2023-01-25T00:15:29;103821.31;;;2.43;100.00
69667;BME280;66534;52.370;4.832;2023-01-25T00:16:00;103824.69;;;2.42;100.00
69667;BME280;66534;52.370;4.832;2023-01-25T00:16:32;103819.44;;;2.39;100.00
69667;BME280;66534;52.370;4.832;2023-01-25T00:17:02;103822.34;;;2.48;100.00
69667;BME280;66534;52.370;4.832;2023-01-25T00:17:33;103818.75;;;2.45;100.00
69667;BME280;66534;52.370;4.832;2023-01-25T00:18:03;103819.22;;;2.57;100.00
69667;BME280;66534;52.370;4.832;2023-01-25T00:18:34;103818.00;;;2.71;100.00
69667;BME280;66534;52.370;4.832;2023-01-25T00:19:05;103820.69;;;2.74;100.00
69667;BME280;66534;52.370;4.832;2023-01-25T00:19:36;103823.28;;;2.74;100.00
69667;BME280;66534;52.370;4.832;2023-01-25T00:20:07;103814.38;;;2.92;100.00
69667;BME280;66534;52.370;4.832;2023-01-25T00:20:38;103823.03;;;2.92;100.00
69667;BME280;66534;52.370;4.832;2023-01-25T00:21:15;103813.88;;;2.77;100.00
69667;BME280;66534;52.370;4.832;2023-01-25T00:21:48;103816.75;;;2.60;100.00
69667;BME280;66534;52.370;4.832;2023-01-25T00:22:19;103811.72;;;2.65;100.00
69667;BME280;66534;52.370;4.832;2023-01-25T00:22:49;103807.97;;;2.81;100.00
69667;BME280;66534;52.370;4.832;2023-01-25T00:23:19;103811.03;;;2.94;100.00
69667;BME280;66534;52.370;4.832;2023-01-25T00:23:50;103808.97;;;3.10;100.00
69667;BME280;66534;52.370;4.832;2023-01-25T00:24:21;103808.78;;;3.05;100.00
69667;BME280;66534;52.370;4.832;2023-01-25T00:24:54;103799.78;;;2.94;100.00
69667;BME280;66534;52.370;4.832;2023-01-25T00:25:25;103807.84;;;3.02;100.00
69667;BME280;66534;52.370;4.832;2023-01-25T00:25:56;103811.81;;;2.92;100.00
69667;BME280;66534;52.370;4.832;2023-01-25T00:26:30;103809.34;;;2.96;100.00
69667;BME280;66534;52.370;4.832;2023-01-25T00:27:01;103810.28;;;2.97;100.00
69667;BME280;66534;52.370;4.832;2023-01-25T00:27:32;103808.00;;;2.82;100.00
69667;BME280;66534;52.370;4.832;2023-01-25T00:28:03;103809.94;;;2.88;100.00
69667;BME280;66534;52.370;4.832;2023-01-25T00:28:33;103810.00;;;2.89;100.00
69667;BME280;66534;52.370;4.832;2023-01-25T00:29:04;103812.69;;;2.92;100.00
69667;BME280;66534;52.370;4.832;2023-01-25T00:29:35;103815.19;;;2.89;100.00
69667;BME280;66534;52.370;4.832;2023-01-25T00:30:05;103811.31;;;3.02;100.00
69667;BME280;66534;52.370;4.832;2023-01-25T00:30:36;103810.34;;;3.00;100.00
69667;BME280;66534;52.370;4.832;2023-01-25T00:31:08;103807.69;;;2.97;100.00
69667;BME280;66534;52.370;4.832;2023-01-25T00:31:57;103816.13;;;2.67;100.00
69667;BME280;66534;52.370;4.832;2023-01-25T00:32:52;103816.66;;;2.59;100.00
69667;BME280;66534;52.370;4.832;2023-01-25T00:33:49;103811.94;;;2.96;100.00
69667;BME280;66534;52.370;4.832;2023-01-25T00:34:45;103811.53;;;2.84;100.00
69667;BME280;66534;52.370;4.832;2023-01-25T00:35:16;103813.88;;;2.77;100.00
69667;BME280;66534;52.370;4.832;2023-01-25T00:35:47;103807.72;;;2.50;100.00
69667;BME280;66534;52.370;4.832;2023-01-25T00:36:31;103806.69;;;2.45;100.00
69667;BME280;66534;52.370;4.832;2023-01-25T00:37:36;103809.59;;;2.55;100.00
69667;BME280;66534;52.370;4.832;2023-01-25T00:38:28;103814.16;;;2.60;100.00
69667;BME280;66534;52.370;4.832;2023-01-25T00:39:03;103812.91;;;2.74;100.00
69667;BME280;66534;52.370;4.832;2023-01-25T00:39:34;103810.31;;;2.74;100.00
69667;BME280;66534;52.370;4.832;2023-01-25T00:40:05;103817.63;;;2.85;100.00
69667;BME280;66534;52.370;4.832;2023-01-25T00:40:36;103812.75;;;2.70;100.00
69667;BME280;66534;52.370;4.832;2023-01-25T00:41:07;103810.63;;;2.34;100.00
69667;BME280;66534;52.370;4.832;2023-01-25T00:41:39;103809.28;;;2.45;100.00
69667;BME280;66534;52.370;4.832;2023-01-25T00:42:10;103806.69;;;2.45;100.00
69667;BME280;66534;52.370;4.832;2023-01-25T00:42:40;103803.88;;;2.39;100.00
69667;BME280;66534;52.370;4.832;2023-01-25T00:43:11;103803.00;;;2.39;100.00
69667;BME280;66534;52.370;4.832;2023-01-25T00:43:43;103808.56;;;2.49;100.00
69667;BME280;66534;52.370;4.832;2023-01-25T00:44:13;103808.44;;;2.22;100.00
69667;BME280;66534;52.370;4.832;2023-01-25T00:44:44;103800.13;;;2.09;100.00
69667;BME280;66534;52.370;4.832;2023-01-25T00:45:16;103805.72;;;2.19;100.00
69667;BME280;66534;52.370;4.832;2023-01-25T00:45:46;103807.31;;;1.93;100.00
69667;BME280;66534;52.370;4.832;2023-01-25T00:46:17;103804.50;;;2.10;100.00
69667;BME280;66534;52.370;4.832;2023-01-25T00:46:47;103814.25;;;1.94;100.00
69667;BME280;66534;52.370;4.832;2023-01-25T00:47:18;103810.00;;;1.96;100.00
69667;BME280;66534;52.370;4.832;2023-01-25T00:47:49;103811.69;;;1.94;100.00
69667;BME280;66534;52.370;4.832;2023-01-25T00:48:23;103801.84;;;1.86;100.00
69667;BME280;66534;52.370;4.832;2023-01-25T00:48:54;103809.56;;;1.84;100.00
69667;BME280;66534;52.370;4.832;2023-01-25T00:49:25;103806.19;;;1.87;100.00
69667;BME280;66534;52.370;4.832;2023-01-25T00:49:56;103803.97;;;1.96;100.00
69667;BME280;66534;52.370;4.832;2023-01-25T00:50:27;103801.03;;;2.09;100.00
69667;BME280;66534;52.370;4.832;2023-01-25T00:51:00;103804.69;;;2.14;100.00
69667;BME280;66534;52.370;4.832;2023-01-25T00:51:31;103802.38;;;2.22;100.00
69667;BME280;66534;52.370;4.832;2023-01-25T00:52:02;103798.03;;;1.98;100.00
69667;BME280;66534;52.370;4.832;2023-01-25T00:52:33;103809.56;;;1.84;100.00
69667;BME280;66534;52.370;4.832;2023-01-25T00:53:04;103801.50;;;1.99;100.00
69667;BME280;66534;52.370;4.832;2023-01-25T00:53:34;103800.88;;;1.84;100.00
69667;BME280;66534;52.370;4.832;2023-01-25T00:54:05;103795.84;;;1.64;100.00
69667;BME280;66534;52.370;4.832;2023-01-25T00:54:35;103805.00;;;1.79;100.00
69667;BME280;66534;52.370;4.832;2023-01-25T00:55:06;103800.88;;;1.84;100.00
69667;BME280;66534;52.370;4.832;2023-01-25T00:55:37;103798.72;;;1.94;100.00
69667;BME280;66534;52.370;4.832;2023-01-25T00:56:07;103802.53;;;2.04;100.00
69667;BME280;66534;52.370;4.832;2023-01-25T00:56:38;103797.03;;;2.17;100.00
69667;BME280;66534;52.370;4.832;2023-01-25T00:57:08;103790.84;;;2.14;100.00
69667;BME280;66534;52.370;4.832;2023-01-25T00:57:39;103790.91;;;2.15;100.00
69667;BME280;66534;52.370;4.832;2023-01-25T00:58:09;103794.25;;;2.13;100.00
69667;BME280;66534;52.370;4.832;2023-01-25T00:58:40;103792.72;;;2.18;100.00
69667;BME280;66534;52.370;4.832;2023-01-25T00:59:11;103789.31;;;2.19;100.00
69667;BME280;66534;52.370;4.832;2023-01-25T00:59:42;103790.69;;;2.09;100.00
69667;BME280;66534;52.370;4.832;2023-01-25T01:00:13;103789.19;;;2.38;100.00
69667;BME280;66534;52.370;4.832;2023-01-25T01:00:44;103789.56;;;2.49;100.00
69667;BME280;66534;52.370;4.832;2023-01-25T01:01:15;103785.25;;;2.49;100.00
69667;BME280;66534;52.370;4.832;2023-01-25T01:01:45;103789.78;;;2.31;100.00
69667;BME280;66534;52.370;4.832;2023-01-25T01:02:16;103792.19;;;2.27;100.00
69667;BME280;66534;52.370;4.832;2023-01-25T01:02:46;103792.31;;;2.07;100.00
69667;BME280;66534;52.370;4.832;2023-01-25T01:03:16;103792.84;;;1.98;100.00
69667;BME280;66534;52.370;4.832;2023-01-25T01:03:47;103791.78;;;1.93;100.00
69667;BME280;66534;52.370;4.832;2023-01-25T01:04:18;103791.50;;;1.86;100.00
69667;BME280;66534;52.370;4.832;2023-01-25T01:04:48;103796.13;;;1.72;100.00
69667;BME280;66534;52.370;4.832;2023-01-25T01:05:19;103791.00;;;1.73;100.00
69667;BME280;66534;52.370;4.832;2023-01-25T01:05:59;103793.47;;;1.70;100.00
69667;BME280;66534;52.370;4.832;2023-01-25T01:06:37;103794.44;;;1.72;100.00
69667;BME280;66534;52.370;4.832;2023-01-25T01:07:10;103791.19;;;1.78;100.00
69667;BME280;66534;52.370;4.832;2023-01-25T01:07:42;103786.00;;;1.78;100.00
69667;BME280;66534;52.370;4.832;2023-01-25T01:08:13;103784.56;;;1.85;100.00
69667;BME280;66534;52.370;4.832;2023-01-25T01:08:44;103788.59;;;1.78;100.00
69667;BME280;66534;52.370;4.832;2023-01-25T01:09:15;103788.91;;;1.86;100.00
69667;BME280;66534;52.370;4.832;2023-01-25T01:09:47;103791.25;;;2.02;100.00
69667;BME280;66534;52.370;4.832;2023-01-25T01:10:17;103791.06;;;2.20;100.00
69667;BME280;66534;52.370;4.832;2023-01-25T01:10:48;103782.16;;;2.36;100.00
69667;BME280;66534;52.370;4.832;2023-01-25T01:11:18;103784.59;;;2.55;100.00
69667;BME280;66534;52.370;4.832;2023-01-25T01:11:48;103783.78;;;2.34;100.00
69667;BME280;66534;52.370;4.832;2023-01-25T01:12:19;103783.75;;;2.32;100.00
69667;BME280;66534;52.370;4.832;2023-01-25T01:12:49;103806.22;;;2.33;100.00
69667;BME280;66534;52.370;4.832;2023-01-25T01:13:20;103779.78;;;2.18;100.00
69667;BME280;66534;52.370;4.832;2023-01-25T01:13:50;103787.31;;;2.12;100.00
69667;BME280;66534;52.370;4.832;2023-01-25T01:14:21;103776.47;;;1.99;100.00
69667;BME280;66534;52.370;4.832;2023-01-25T01:14:53;103785.66;;;1.91;100.00
69667;BME280;66534;52.370;4.832;2023-01-25T01:15:23;103783.31;;;1.97;100.00
69667;BME280;66534;52.370;4.832;2023-01-25T01:15:54;103779.25;;;2.04;100.00
69667;BME280;66534;52.370;4.832;2023-01-25T01:16:25;103787.69;;;1.76;100.00
69667;BME280;66534;52.370;4.832;2023-01-25T01:16:56;103784.63;;;1.43;100.00
69667;BME280;66534;52.370;4.832;2023-01-25T01:17:27;103783.44;;;1.35;100.00
69667;BME280;66534;52.370;4.832;2023-01-25T01:17:57;103789.66;;;1.40;100.00
69667;BME280;66534;52.370;4.832;2023-01-25T01:18:34;103786.44;;;1.45;100.00
69667;BME280;66534;52.370;4.832;2023-01-25T01:19:05;103792.63;;;1.49;100.00
69667;BME280;66534;52.370;4.832;2023-01-25T01:19:36;103792.91;;;1.34;100.00
69667;BME280;66534;52.370;4.832;2023-01-25T01:20:07;103790.69;;;1.43;100.00
69667;BME280;66534;52.370;4.832;2023-01-25T01:20:38;103791.59;;;1.45;100.00
69667;BME280;66534;52.370;4.832;2023-01-25T01:21:08;103786.59;;;1.71;100.00
69667;BME280;66534;52.370;4.832;2023-01-25T01:21:40;103788.47;;;1.75;100.00
69667;BME280;66534;52.370;4.832;2023-01-25T01:22:10;103786.59;;;1.71;100.00
69667;BME280;66534;52.370;4.832;2023-01-25T01:22:41;103792.78;;;1.74;100.00
69667;BME280;66534;52.370;4.832;2023-01-25T01:23:11;103788.56;;;1.99;100.00
69667;BME280;66534;52.370;4.832;2023-01-25T01:23:42;103788.16;;;1.88;100.00
69667;BME280;66534;52.370;4.832;2023-01-25T01:24:12;103791.59;;;1.66;100.00
69667;BME280;66534;52.370;4.832;2023-01-25T01:24:43;103786.00;;;1.78;100.00
69667;BME280;66534;52.370;4.832;2023-01-25T01:25:13;103786.66;;;1.95;100.00
69667;BME280;66534;52.370;4.832;2023-01-25T01:25:44;103778.31;;;2.02;100.00
69667;BME280;66534;52.370;4.832;2023-01-25T01:26:15;103783.41;;;2.23;100.00
69667;BME280;66534;52.370;4.832;2023-01-25T01:26:50;103784.25;;;2.22;100.00
69667;BME280;66534;52.370;4.832;2023-01-25T01:27:20;103781.00;;;2.28;100.00
69667;BME280;66534;52.370;4.832;2023-01-25T01:27:50;103780.44;;;1.90;100.00
69667;BME280;66534;52.370;4.832;2023-01-25T01:28:21;103780.88;;;1.80;100.00
69667;BME280;66534;52.370;4.832;2023-01-25T01:28:51;103785.44;;;1.85;100.00
69667;BME280;66534;52.370;4.832;2023-01-25T01:29:22;103779.69;;;1.92;100.00
69667;BME280;66534;52.370;4.832;2023-01-25T01:29:52;103780.78;;;1.77;100.00
69667;BME280;66534;52.370;4.832;2023-01-25T01:30:22;103776.88;;;1.65;100.00
69667;BME280;66534;52.370;4.832;2023-01-25T01:30:53;103778.28;;;1.80;100.00
69667;BME280;66534;52.370;4.832;2023-01-25T01:31:23;103777.47;;;2.03;100.00
69667;BME280;66534;52.370;4.832;2023-01-25T01:31:54;103777.03;;;2.13;100.00
69667;BME280;66534;52.370;4.832;2023-01-25T01:32:25;103778.06;;;2.42;100.00
69667;BME280;66534;52.370;4.832;2023-01-25T01:32:55;103778.44;;;2.29;100.00
69667;BME280;66534;52.370;4.832;2023-01-25T01:33:26;103776.41;;;2.20;100.00
69667;BME280;66534;52.370;4.832;2023-01-25T01:33:56;103776.25;;;1.93;100.00
69667;BME280;66534;52.370;4.832;2023-01-25T01:34:27;103780.44;;;1.90;100.00
69667;BME280;66534;52.370;4.832;2023-01-25T01:34:57;103783.78;;;1.65;100.00
69667;BME280;66534;52.370;4.832;2023-01-25T01:35:28;103777.31;;;1.76;100.00
69667;BME280;66534;52.370;4.832;2023-01-25T01:36:05;103780.56;;;1.93;100.00
69667;BME280;66534;52.370;4.832;2023-01-25T01:36:39;103775.97;;;1.86;100.00
69667;BME280;66534;52.370;4.832;2023-01-25T01:37:10;103773.44;;;1.87;100.00
69667;BME280;66534;52.370;4.832;2023-01-25T01:37:41;103770.38;;;1.97;100.00
69667;BME280;66534;52.370;4.832;2023-01-25T01:38:12;103774.13;;;2.06;100.00
69667;BME280;66534;52.370;4.832;2023-01-25T01:38:42;103777.47;;;2.03;100.00
69667;BME280;66534;52.370;4.832;2023-01-25T01:39:13;103774.72;;;1.98;100.00
69667;BME280;66534;52.370;4.832;2023-01-25T01:39:44;103781.06;;;2.07;100.00
69667;BME280;66534;52.370;4.832;2023-01-25T01:40:14;103779.25;;;2.04;100.00
69667;BME280;66534;52.370;4.832;2023-01-25T01:40:46;103777.28;;;1.97;100.00
69667;BME280;66534;52.370;4.832;2023-01-25T01:41:17;103776.44;;;1.98;100.00
69667;BME280;66534;52.370;4.832;2023-01-25T01:41:48;103777.19;;;1.95;100.00
69667;BME280;66534;52.370;4.832;2023-01-25T01:42:19;103772.09;;;1.97;100.00
69667;BME280;66534;52.370;4.832;2023-01-25T01:42:56;103781.50;;;2.17;100.00
69667;BME280;66534;52.370;4.832;2023-01-25T01:43:35;103777.75;;;2.33;100.00
69667;BME280;66534;52.370;4.832;2023-01-25T01:44:09;103770.84;;;2.34;100.00
69667;BME280;66534;52.370;4.832;2023-01-25T01:44:49;103773.53;;;2.59;100.00
69667;BME280;66534;52.370;4.832;2023-01-25T01:46:20;103770.66;;;3.01;100.00
69667;BME280;66534;52.370;4.832;2023-01-25T01:46:54;103765.50;;;3.03;100.00
69667;BME280;66534;52.370;4.832;2023-01-25T01:47:40;103768.44;;;2.88;100.00
69667;BME280;66534;52.370;4.832;2023-01-25T01:49:17;103769.16;;;2.34;100.00
69667;BME280;66534;52.370;4.832;2023-01-25T01:50:00;103766.91;;;1.97;100.00
69667;BME280;66534;52.370;4.832;2023-01-25T01:50:35;103770.25;;;1.94;100.00
69667;BME280;66534;52.370;4.832;2023-01-25T01:52:39;103775.84;;;2.29;100.00
69667;BME280;66534;52.370;4.832;2023-01-25T01:53:10;103777.31;;;2.45;100.00
69667;BME280;66534;52.370;4.832;2023-01-25T01:53:42;103766.28;;;2.50;100.00
69667;BME280;66534;52.370;4.832;2023-01-25T01:55:02;103776.69;;;2.28;100.00
69667;BME280;66534;52.370;4.832;2023-01-25T01:55:34;103779.34;;;2.30;100.00
69667;BME280;66534;52.370;4.832;2023-01-25T01:56:06;103775.38;;;2.39;100.00
69667;BME280;66534;52.370;4.832;2023-01-25T01:56:50;103772.00;;;2.42;100.00
69667;BME280;66534;52.370;4.832;2023-01-25T01:57:52;103774.97;;;2.29;100.00
69667;BME280;66534;52.370;4.832;2023-01-25T01:58:29;103779.41;;;2.31;100.00
69667;BME280;66534;52.370;4.832;2023-01-25T01:59:01;103773.50;;;2.35;100.00
69667;BME280;66534;52.370;4.832;2023-01-25T01:59:41;103768.75;;;2.23;100.00
69667;BME280;66534;52.370;4.832;2023-01-25T02:00:19;103769.34;;;2.16;100.00
69667;BME280;66534;52.370;4.832;2023-01-25T02:00:52;103769.25;;;2.13;100.00
69667;BME280;66534;52.370;4.832;2023-01-25T02:01:22;103771.88;;;2.15;100.00
69667;BME280;66534;52.370;4.832;2023-01-25T02:01:53;103768.03;;;2.28;100.00
69667;BME280;66534;52.370;4.832;2023-01-25T02:02:24;103772.81;;;2.39;100.00
69667;BME280;66534;52.370;4.832;2023-01-25T02:02:56;103767.34;;;2.32;100.00
69667;BME280;66534;52.370;4.832;2023-01-25T02:03:28;103771.56;;;2.30;100.00
69667;BME280;66534;52.370;4.832;2023-01-25T02:03:59;103773.34;;;2.31;100.00
69667;BME280;66534;52.370;4.832;2023-01-25T02:04:32;103767.59;;;2.15;100.00
69667;BME280;66534;52.370;4.832;2023-01-25T02:05:04;103773.59;;;2.14;100.00
69667;BME280;66534;52.370;4.832;2023-01-25T02:05:51;103767.38;;;2.09;100.00
69667;BME280;66534;52.370;4.832;2023-01-25T02:07:43;103772.84;;;1.94;100.00
69667;BME280;66534;52.370;4.832;2023-01-25T02:08:18;103769.47;;;2.19;100.00
69667;BME280;66534;52.370;4.832;2023-01-25T02:08:49;103765.88;;;2.16;100.00
69667;BME280;66534;52.370;4.832;2023-01-25T02:09:23;103766.94;;;2.21;100.00
69667;BME280;66534;52.370;4.832;2023-01-25T02:09:56;103766.97;;;2.46;100.00
69667;BME280;66534;52.370;4.832;2023-01-25T02:10:29;103768.09;;;2.53;100.00
69667;BME280;66534;52.370;4.832;2023-01-25T02:10:59;103769.78;;;2.51;100.00
69667;BME280;66534;52.370;4.832;2023-01-25T02:11:31;103769.59;;;2.22;100.00
69667;BME280;66534;52.370;4.832;2023-01-25T02:12:03;103766.25;;;2.03;100.00
69667;BME280;66534;52.370;4.832;2023-01-25T02:12:35;103764.38;;;1.98;100.00
69667;BME280;66534;52.370;4.832;2023-01-25T02:13:07;103769.88;;;2.08;100.00
69667;BME280;66534;52.370;4.832;2023-01-25T02:13:37;103766.03;;;2.20;100.00
69667;BME280;66534;52.370;4.832;2023-01-25T02:14:08;103767.59;;;2.15;100.00
69667;BME280;66534;52.370;4.832;2023-01-25T02:14:44;103761.03;;;2.25;100.00
69667;BME280;66534;52.370;4.832;2023-01-25T02:15:18;103766.03;;;2.20;100.00
69667;BME280;66534;52.370;4.832;2023-01-25T02:15:49;103758.28;;;2.20;100.00
69667;BME280;66534;52.370;4.832;2023-01-25T02:16:21;103756.91;;;2.06;100.00
69667;BME280;66534;52.370;4.832;2023-01-25T02:16:54;103765.00;;;1.48;100.00
69667;BME280;66534;52.370;4.832;2023-01-25T02:17:27;103762.66;;;1.33;100.00
69667;BME280;66534;52.370;4.832;2023-01-25T02:17:59;103761.03;;;1.35;100.00
69667;BME280;66534;52.370;4.832;2023-01-25T02:18:30;103757.94;;;1.66;100.00
69667;BME280;66534;52.370;4.832;2023-01-25T02:19:01;103758.66;;;2.07;100.00
69667;BME280;66534;52.370;4.832;2023-01-25T02:19:48;103755.63;;;2.19;100.00
69667;BME280;66534;52.370;4.832;2023-01-25T02:21:01;103761.66;;;2.42;100.00
69667;BME280;66534;52.370;4.832;2023-01-25T02:21:34;103754.31;;;2.54;100.00
69667;BME280;66534;52.370;4.832;2023-01-25T02:22:10;103764.94;;;2.62;100.00
69667;BME280;66534;52.370;4.832;2023-01-25T02:23:54;103756.81;;;2.27;100.00
69667;BME280;66534;52.370;4.832;2023-01-25T02:24:33;103758.88;;;2.37;100.00
69667;BME280;66534;52.370;4.832;2023-01-25T02:25:07;103757.88;;;2.34;100.00
69667;BME280;66534;52.370;4.832;2023-01-25T02:25:39;103765.41;;;2.26;100.00
69667;BME280;66534;52.370;4.832;2023-01-25T02:26:10;103770.78;;;1.63;100.00
69667;BME280;66534;52.370;4.832;2023-01-25T02:26:41;103758.06;;;1.47;100.00
69667;BME280;66534;52.370;4.832;2023-01-25T02:27:12;103760.53;;;1.66;100.00
69667;BME280;66534;52.370;4.832;2023-01-25T02:27:56;103757.66;;;1.81;100.00
69667;BME280;66534;52.370;4.832;2023-01-25T02:29:13;103751.78;;;1.85;100.00
69667;BME280;66534;52.370;4.832;2023-01-25T02:29:45;103748.63;;;1.92;100.00
69667;BME280;66534;52.370;4.832;2023-01-25T02:30:16;103754.25;;;1.82;100.00
69667;BME280;66534;52.370;4.832;2023-01-25T02:30:46;103749.78;;;1.78;100.00
69667;BME280;66534;52.370;4.832;2023-01-25T02:31:17;103754.25;;;1.82;100.00
69667;BME280;66534;52.370;4.832;2023-01-25T02:31:48;103746.66;;;1.64;100.00
69667;BME280;66534;52.370;4.832;2023-01-25T02:32:21;103755.56;;;1.50;100.00
69667;BME280;66534;52.370;4.832;2023-01-25T02:32:51;103747.38;;;1.60;100.00
69667;BME280;66534;52.370;4.832;2023-01-25T02:33:23;103746.97;;;1.72;100.00
69667;BME280;66534;52.370;4.832;2023-01-25T02:33:54;103745.91;;;1.89;100.00
69667;BME280;66534;52.370;4.832;2023-01-25T02:34:24;103748.66;;;1.94;100.00
69667;BME280;66534;52.370;4.832;2023-01-25T02:34:55;103754.19;;;1.58;100.00
69667;BME280;66534;52.370;4.832;2023-01-25T02:36:18;103748.28;;;1.62;100.00
69667;BME280;66534;52.370;4.832;2023-01-25T02:36:53;103744.00;;;1.63;100.00
69667;BME280;66534;52.370;4.832;2023-01-25T02:37:23;103748.28;;;1.40;100.00
69667;BME280;66534;52.370;4.832;2023-01-25T02:37:54;103742.59;;;1.71;100.00
69667;BME280;66534;52.370;4.832;2023-01-25T02:38:24;103748.66;;;1.94;100.00
69667;BME280;66534;52.370;4.832;2023-01-25T02:39:28;103746.50;;;1.60;100.00
69667;BME280;66534;52.370;4.832;2023-01-25T02:39:59;103740.84;;;1.70;100.00
69667;BME280;66534;52.370;4.832;2023-01-25T02:40:29;103742.22;;;1.39;100.00
69667;BME280;66534;52.370;4.832;2023-01-25T02:41:05;103742.41;;;1.44;100.00
69667;BME280;66534;52.370;4.832;2023-01-25T02:41:41;103743.56;;;1.51;100.00
69667;BME280;66534;52.370;4.832;2023-01-25T02:42:13;103740.34;;;1.58;100.00
69667;BME280;66534;52.370;4.832;2023-01-25T02:42:44;103741.34;;;1.39;100.00
69667;BME280;66534;52.370;4.832;2023-01-25T02:43:15;103737.47;;;1.50;100.00
69667;BME280;66534;52.370;4.832;2023-01-25T02:43:46;103742.09;;;1.36;100.00
69667;BME280;66534;52.370;4.832;2023-01-25T02:44:19;103738.94;;;1.43;100.00
69667;BME280;66534;52.370;4.832;2023-01-25T02:44:52;103744.47;;;1.53;100.00
69667;BME280;66534;52.370;4.832;2023-01-25T02:45:24;103737.53;;;1.52;100.00
69667;BME280;66534;52.370;4.832;2023-01-25T02:46:00;103741.03;;;1.31;100.00
69667;BME280;66534;52.370;4.832;2023-01-25T02:46:40;103749.38;;;1.24;100.00
69667;BME280;66534;52.370;4.832;2023-01-25T02:47:11;103741.97;;;1.33;100.00
69667;BME280;66534;52.370;4.832;2023-01-25T02:47:42;103741.72;;;1.48;100.00
69667;BME280;66534;52.370;4.832;2023-01-25T02:48:12;103749.16;;;1.40;100.00
69667;BME280;66534;52.370;4.832;2023-01-25T02:48:42;103740.88;;;1.49;100.00
69667;BME280;66534;52.370;4.832;2023-01-25T02:49:13;103737.53;;;1.52;100.00
69667;BME280;66534;52.370;4.832;2023-01-25T02:49:45;103731.31;;;1.69;100.00
69667;BME280;66534;52.370;4.832;2023-01-25T02:50:15;103732.63;;;1.80;100.00
69667;BME280;66534;52.370;4.832;2023-01-25T02:50:46;103729.59;;;1.92;100.00
69667;BME280;66534;52.370;4.832;2023-01-25T02:51:16;103729.66;;;1.93;100.00
69667;BME280;66534;52.370;4.832;2023-01-25T02:51:48;103728.13;;;1.98;100.00
69667;BME280;66534;52.370;4.832;2023-01-25T02:52:20;103730.06;;;1.82;100.00
69667;BME280;66534;52.370;4.832;2023-01-25T02:52:51;103729.81;;;1.75;100.00
69667;BME280;66534;52.370;4.832;2023-01-25T02:53:21;103731.50;;;1.73;100.00
69667;BME280;66534;52.370;4.832;2023-01-25T02:53:52;103738.03;;;1.64;100.00
69667;BME280;66534;52.370;4.832;2023-01-25T02:54:23;103726.81;;;1.63;100.00
69667;BME280;66534;52.370;4.832;2023-01-25T02:54:55;103732.94;;;1.67;100.00
69667;BME280;66534;52.370;4.832;2023-01-25T02:55:26;103724.47;;;1.71;100.00
69667;BME280;66534;52.370;4.832;2023-01-25T02:55:56;103721.19;;;1.75;100.00
69667;BME280;66534;52.370;4.832;2023-01-25T02:56:26;103732.47;;;1.99;100.00
69667;BME280;66534;52.370;4.832;2023-01-25T02:56:57;103724.06;;;2.05;100.00
69667;BME280;66534;52.370;4.832;2023-01-25T02:57:27;103729.13;;;2.02;100.00
69667;BME280;66534;52.370;4.832;2023-01-25T02:57:58;103726.03;;;2.12;100.00
69667;BME280;66534;52.370;4.832;2023-01-25T02:58:28;103726.03;;;2.12;100.00
69667;BME280;66534;52.370;4.832;2023-01-25T02:58:59;103728.16;;;2.22;100.00